Time;durP1;ratioP1;P1;durP2;ratioP2;P2;SDS_P1;SDS_P2;PMS_P1;PMS_P2;Temp;Humidity;BMP_temperature;BMP_pressure;BME280_temperature;BME280_humidity;BME280_pressure;Samples;Min_cycle;Max_cycle;Signal;HPM_P1;HPM_P2
2022/08/22 00:00:23;;;;;;;5.00;3.15;;;20.10;99.90;;;;;;5025627;28;20278;-69
2022/08/22 00:03:18;;;;;;;5.07;3.20;;;20.20;99.90;;;;;;5032551;28;20219;-72
2022/08/22 00:06:01;;;;;;;6.70;3.30;;;20.20;99.90;;;;;;5023003;28;20204;-69
2022/08/22 00:08:35;;;;;;;6.28;2.92;;;20.00;99.90;;;;;;5032779;28;20228;-69
2022/08/22 00:11:38;;;;;;;4.85;3.10;;;20.10;99.90;;;;;;5022107;28;20287;-68
2022/08/22 00:14:22;;;;;;;4.72;2.75;;;20.10;99.90;;;;;;5031752;28;20204;-69
2022/08/22 00:17:22;;;;;;;3.83;2.85;;;20.00;99.90;;;;;;5023181;28;20239;-75
2022/08/22 00:19:59;;;;;;;6.78;3.28;;;20.00;99.90;;;;;;5017912;28;20282;-70
2022/08/22 00:22:31;;;;;;;8.13;2.42;;;20.00;99.90;;;;;;5025324;28;20262;-69
2022/08/22 00:25:22;;;;;;;4.65;2.95;;;19.90;99.90;;;;;;5029905;28;20199;-69
2022/08/22 00:27:54;;;;;;;5.10;3.03;;;19.90;99.90;;;;;;5028801;28;20262;-69
2022/08/22 00:30:21;;;;;;;5.15;2.75;;;19.90;99.90;;;;;;5037368;28;20304;-69
2022/08/22 00:32:53;;;;;;;6.10;3.50;;;19.80;99.90;;;;;;5029868;28;20216;-70
2022/08/22 00:35:43;;;;;;;5.03;3.10;;;19.80;99.90;;;;;;5025947;28;20228;-71
2022/08/22 00:38:15;;;;;;;4.65;3.00;;;19.90;99.90;;;;;;5026953;28;20763;-70
2022/08/22 00:41:02;;;;;;;5.95;3.10;;;19.80;99.90;;;;;;5032159;28;20606;-72
2022/08/22 00:44:05;;;;;;;6.93;3.33;;;19.80;99.90;;;;;;5026111;28;20211;-70
2022/08/22 00:46:55;;;;;;;3.95;2.65;;;19.70;99.90;;;;;;5026261;28;20216;-71
2022/08/22 00:49:50;;;;;;;4.65;2.95;;;19.70;99.90;;;;;;5024913;28;20213;-76
2022/08/22 00:52:38;;;;;;;5.75;3.53;;;19.70;99.90;;;;;;5025652;28;20668;-70
2022/08/22 00:55:29;;;;;;;6.28;3.10;;;19.70;99.90;;;;;;5024305;28;20646;-70
2022/08/22 00:58:19;;;;;;;5.03;3.00;;;19.60;99.90;;;;;;5028343;28;20173;-70
2022/08/22 01:01:00;;;;;;;5.72;3.28;;;19.60;99.90;;;;;;5042771;28;20255;-73
2022/08/22 01:03:32;;;;;;;5.43;2.90;;;19.60;99.90;;;;;;5010465;28;20205;-71
2022/08/22 01:06:22;;;;;;;4.47;3.03;;;19.50;99.90;;;;;;5007969;28;20300;-73
2022/08/22 01:09:00;;;;;;;6.50;3.58;;;19.50;99.90;;;;;;5001788;28;20256;-72
2022/08/22 01:11:39;;;;;;;4.10;2.88;;;19.50;99.90;;;;;;5007927;28;20316;-70
2022/08/22 01:14:29;;;;;;;5.40;3.75;;;19.40;99.90;;;;;;5007777;28;20209;-70
2022/08/22 01:17:04;;;;;;;4.50;3.20;;;19.40;99.90;;;;;;5003346;28;20209;-71
2022/08/22 01:20:07;;;;;;;5.88;4.22;;;19.40;99.90;;;;;;5003243;28;20239;-70
2022/08/22 01:22:55;;;;;;;7.28;4.00;;;19.40;99.90;;;;;;5009103;28;20211;-71
2022/08/22 01:25:36;;;;;;;8.48;4.18;;;19.40;99.90;;;;;;5005672;28;20739;-76
2022/08/22 01:28:11;;;;;;;5.88;3.90;;;19.30;99.90;;;;;;5001695;28;20657;-71
2022/08/22 01:30:56;;;;;;;6.63;4.22;;;19.30;99.90;;;;;;5006309;28;20240;-73
2022/08/22 01:33:33;;;;;;;7.03;3.97;;;19.20;99.90;;;;;;5033509;28;20216;-73
2022/08/22 01:36:08;;;;;;;7.88;4.45;;;19.20;99.90;;;;;;5028757;28;20208;-70
2022/08/22 01:38:48;;;;;;;7.05;4.38;;;19.20;99.90;;;;;;5012149;28;20212;-70
2022/08/22 01:41:28;;;;;;;10.75;4.70;;;19.20;99.90;;;;;;5009475;28;20219;-71
2022/08/22 01:44:15;;;;;;;6.18;4.55;;;19.20;99.90;;;;;;5006730;28;20201;-68
2022/08/22 01:47:05;;;;;;;6.22;4.40;;;19.10;99.90;;;;;;5025510;28;20263;-70
2022/08/22 01:49:34;;;;;;;10.50;4.47;;;19.10;99.90;;;;;;5008643;28;20296;-72
2022/08/22 01:52:27;;;;;;;7.07;4.70;;;19.10;99.90;;;;;;5010298;28;20177;-69
2022/08/22 01:55:19;;;;;;;6.18;4.68;;;19.10;99.90;;;;;;5004720;28;20177;-72
2022/08/22 01:57:58;;;;;;;8.07;4.57;;;19.10;99.90;;;;;;5019068;28;20212;-67
2022/08/22 02:00:26;;;;;;;5.65;4.63;;;19.10;99.90;;;;;;5027379;28;20215;-71
2022/08/22 02:03:01;;;;;;;7.78;4.70;;;19.10;99.90;;;;;;5024622;28;20733;-71
2022/08/22 02:05:38;;;;;;;7.60;4.57;;;19.00;99.90;;;;;;5037041;28;20204;-71
2022/08/22 02:08:26;;;;;;;6.00;4.78;;;19.10;99.90;;;;;;5027750;28;20768;-71
2022/08/22 02:11:09;;;;;;;6.30;4.80;;;19.00;99.90;;;;;;5024128;28;20243;-71
2022/08/22 02:13:53;;;;;;;8.70;4.65;;;19.00;99.90;;;;;;5022710;28;20239;-71
2022/08/22 02:16:41;;;;;;;7.18;4.55;;;18.90;99.90;;;;;;5027615;28;20219;-72
2022/08/22 02:19:13;;;;;;;6.32;4.32;;;18.90;99.90;;;;;;5023522;28;20180;-69
2022/08/22 02:21:52;;;;;;;9.30;4.75;;;18.90;99.90;;;;;;5022929;28;20204;-72
2022/08/22 02:24:23;;;;;;;8.02;5.60;;;18.80;99.90;;;;;;5028639;28;20212;-71
2022/08/22 02:27:27;;;;;;;7.55;5.10;;;18.90;99.90;;;;;;5026231;28;20287;-74
2022/08/22 02:29:52;;;;;;;8.80;5.18;;;18.80;99.90;;;;;;5022167;28;20215;-69
2022/08/22 02:32:25;;;;;;;8.95;5.22;;;18.80;99.90;;;;;;5027684;28;20270;-71
2022/08/22 02:35:05;;;;;;;7.93;5.22;;;18.80;99.90;;;;;;5024741;28;20204;-69
2022/08/22 02:37:40;;;;;;;7.03;5.03;;;18.80;99.90;;;;;;5021513;28;20227;-70
2022/08/22 02:40:20;;;;;;;7.07;5.30;;;18.80;99.90;;;;;;5029220;28;20196;-73
2022/08/22 02:42:51;;;;;;;8.15;5.47;;;18.80;99.90;;;;;;5027169;28;20168;-69
2022/08/22 02:45:44;;;;;;;7.30;5.05;;;18.80;99.90;;;;;;5024610;28;20300;-74
2022/08/22 02:48:34;;;;;;;9.23;4.43;;;18.70;99.90;;;;;;5029404;28;20287;-69
2022/08/22 02:51:05;;;;;;;8.13;5.20;;;18.70;99.90;;;;;;5029931;28;20587;-69
2022/08/22 02:53:54;;;;;;;7.57;5.30;;;18.70;99.90;;;;;;5028053;28;20209;-69
2022/08/22 02:56:26;;;;;;;8.02;4.93;;;18.60;99.90;;;;;;5028877;28;20235;-71
2022/08/22 02:58:55;;;;;;;9.07;5.45;;;18.60;99.90;;;;;;5029068;28;20257;-69
2022/08/22 03:01:34;;;;;;;7.68;5.28;;;18.60;99.90;;;;;;5029656;28;20220;-71
2022/08/22 03:04:41;;;;;;;6.38;4.90;;;18.60;99.90;;;;;;5032889;28;20176;-72
2022/08/22 03:07:17;;;;;;;8.15;4.90;;;18.60;99.90;;;;;;5009099;28;20188;-69
2022/08/22 03:09:56;;;;;;;10.43;5.50;;;18.60;99.90;;;;;;5030052;28;20298;-72
2022/08/22 03:12:41;;;;;;;7.35;5.32;;;18.60;99.90;;;;;;5023736;28;20289;-69
2022/08/22 03:15:41;;;;;;;9.13;5.03;;;18.70;99.90;;;;;;5032494;28;20216;-73
2022/08/22 03:18:23;;;;;;;6.90;4.57;;;18.60;99.90;;;;;;5027752;28;20216;-71
2022/08/22 03:20:57;;;;;;;9.25;5.35;;;18.60;99.90;;;;;;5026096;28;20216;-75
2022/08/22 03:23:32;;;;;;;7.35;4.95;;;18.60;99.90;;;;;;5028582;28;20210;-73
2022/08/22 03:26:07;;;;;;;6.70;4.78;;;18.60;99.90;;;;;;5029989;28;20273;-71
2022/08/22 03:28:53;;;;;;;8.88;4.88;;;18.60;99.90;;;;;;5029800;28;20286;-72
2022/08/22 03:31:22;;;;;;;7.72;5.07;;;18.60;99.90;;;;;;5029216;28;20231;-70
2022/08/22 03:34:22;;;;;;;5.72;4.38;;;18.60;99.90;;;;;;5030274;28;20187;-72
2022/08/22 03:37:14;;;;;;;6.95;4.80;;;18.60;99.90;;;;;;5029995;28;20342;-70
2022/08/22 03:39:49;;;;;;;6.38;4.57;;;18.60;99.90;;;;;;5031856;28;20209;-73
2022/08/22 03:42:14;;;;;;;7.75;4.88;;;18.60;99.90;;;;;;5032892;22;20236;-67
2022/08/22 03:45:14;;;;;;;7.05;5.13;;;18.60;99.90;;;;;;4990355;28;20310;-68
2022/08/22 03:48:17;;;;;;;12.65;4.90;;;18.50;99.90;;;;;;4989990;28;20210;-68
2022/08/22 03:51:10;;;;;;;6.22;4.93;;;18.60;99.90;;;;;;4987278;28;20210;-68
2022/08/22 03:53:44;;;;;;;10.38;4.70;;;18.60;99.90;;;;;;4990319;28;20210;-68
2022/08/22 03:56:48;;;;;;;5.95;4.30;;;18.60;99.90;;;;;;4988578;28;20217;-67
2022/08/22 03:59:33;;;;;;;8.32;5.60;;;18.60;99.90;;;;;;4990465;28;20263;-66
2022/08/22 04:02:08;;;;;;;8.45;5.50;;;18.50;99.90;;;;;;4993706;28;20237;-67
2022/08/22 04:05:12;;;;;;;6.32;5.20;;;18.50;99.90;;;;;;4993646;28;20279;-67
2022/08/22 04:08:15;;;;;;;6.90;5.10;;;18.50;99.90;;;;;;4993099;28;20205;-67
2022/08/22 04:10:57;;;;;;;8.35;5.10;;;18.60;99.90;;;;;;4992762;28;20220;-68
2022/08/22 04:13:42;;;;;;;9.95;5.72;;;18.60;99.90;;;;;;4988924;28;20218;-67
2022/08/22 04:16:13;;;;;;;9.40;5.10;;;18.60;99.90;;;;;;4986846;28;20208;-67
2022/08/22 04:19:07;;;;;;;6.97;5.30;;;18.60;99.90;;;;;;4993280;28;20253;-67
2022/08/22 04:22:06;;;;;;;9.95;5.60;;;18.60;99.90;;;;;;4988570;28;20288;-67
2022/08/22 04:24:54;;;;;;;6.28;5.35;;;18.60;99.90;;;;;;4992269;28;20213;-67
2022/08/22 04:27:22;;;;;;;9.57;5.40;;;18.70;99.90;;;;;;4988139;28;20588;-67
2022/08/22 04:30:01;;;;;;;7.63;5.38;;;18.70;99.90;;;;;;4991432;28;20220;-68
2022/08/22 04:32:35;;;;;;;7.97;5.70;;;18.80;99.90;;;;;;4983908;28;20217;-67
2022/08/22 04:35:30;;;;;;;10.27;6.05;;;18.70;99.90;;;;;;4989248;28;20279;-67
2022/08/22 04:38:01;;;;;;;6.57;5.47;;;18.80;99.90;;;;;;4983004;28;20224;-67
2022/08/22 04:40:37;;;;;;;9.90;6.07;;;18.90;99.90;;;;;;4985359;28;20209;-67
2022/08/22 04:43:37;;;;;;;10.05;6.50;;;19.00;99.90;;;;;;4988667;28;20244;-67
2022/08/22 04:46:21;;;;;;;9.55;6.07;;;19.10;99.90;;;;;;4989459;28;20248;-68
2022/08/22 04:48:55;;;;;;;8.50;5.90;;;19.20;99.90;;;;;;4982953;28;20194;-67
2022/08/22 04:51:32;;;;;;;10.32;5.63;;;19.30;99.90;;;;;;4987184;28;20217;-67
2022/08/22 04:54:32;;;;;;;11.10;5.65;;;19.40;99.90;;;;;;4990871;28;20243;-68
2022/08/22 04:57:33;;;;;;;7.72;5.45;;;19.60;99.90;;;;;;4983255;28;20285;-68
2022/08/22 05:00:10;;;;;;;7.88;5.07;;;19.70;99.90;;;;;;4987208;28;20212;-68
2022/08/22 05:02:38;;;;;;;7.97;5.03;;;19.70;99.90;;;;;;4987944;28;20209;-68
2022/08/22 05:05:12;;;;;;;11.52;5.80;;;19.80;99.90;;;;;;4989115;28;20206;-67
2022/08/22 05:07:55;;;;;;;9.60;5.93;;;19.80;99.90;;;;;;4984568;28;20210;-67
2022/08/22 05:10:38;;;;;;;8.20;5.85;;;19.90;99.90;;;;;;4988873;28;20252;-67
2022/08/22 05:13:09;;;;;;;8.98;5.35;;;19.90;99.90;;;;;;4986238;28;20645;-68
2022/08/22 05:15:40;;;;;;;9.32;5.82;;;19.90;99.90;;;;;;4984654;28;20269;-67
2022/08/22 05:18:15;;;;;;;7.35;5.40;;;19.90;99.90;;;;;;4984863;28;20217;-67
2022/08/22 05:20:45;;;;;;;11.48;5.80;;;20.00;99.90;;;;;;4990396;28;20268;-66
2022/08/22 05:23:20;;;;;;;8.02;5.68;;;20.10;99.90;;;;;;4984300;28;20233;-68
2022/08/22 05:25:50;;;;;;;10.20;6.03;;;20.10;99.90;;;;;;4985708;28;20212;-67
2022/08/22 05:28:36;;;;;;;10.35;5.72;;;20.10;99.90;;;;;;4985615;28;20213;-68
2022/08/22 05:31:06;;;;;;;9.45;5.55;;;20.10;99.90;;;;;;4984878;28;20193;-67
2022/08/22 05:33:37;;;;;;;11.60;5.88;;;20.10;99.90;;;;;;4985388;28;20225;-67
2022/08/22 05:36:09;;;;;;;8.50;5.65;;;20.10;99.90;;;;;;4985486;28;20584;-67
2022/08/22 05:38:42;;;;;;;10.95;5.40;;;20.30;99.90;;;;;;4988704;28;20213;-67
2022/08/22 05:41:15;;;;;;;7.38;5.90;;;20.40;99.90;;;;;;4985685;28;20217;-67
2022/08/22 05:43:43;;;;;;;10.73;6.38;;;20.50;99.90;;;;;;4985338;28;20226;-68
2022/08/22 05:46:21;;;;;;;9.43;5.80;;;20.60;99.90;;;;;;4989654;28;20219;-68
2022/08/22 05:49:14;;;;;;;9.60;5.43;;;20.80;99.90;;;;;;4981863;28;20248;-67
2022/08/22 05:51:59;;;;;;;8.23;5.72;;;21.10;99.90;;;;;;4983131;28;20249;-67
2022/08/22 05:54:32;;;;;;;10.13;6.00;;;21.30;99.90;;;;;;4990996;28;20623;-67
2022/08/22 05:57:27;;;;;;;11.68;5.47;;;21.30;99.90;;;;;;4984832;28;20229;-66
2022/08/22 06:00:00;;;;;;;7.82;5.57;;;21.20;99.90;;;;;;4987241;28;20222;-66
2022/08/22 06:03:07;;;;;;;8.68;5.63;;;21.30;99.90;;;;;;4982155;28;20221;-67
2022/08/22 06:05:39;;;;;;;6.50;5.50;;;21.50;99.90;;;;;;4984018;28;20232;-67
2022/08/22 06:08:18;;;;;;;9.18;5.22;;;21.80;99.90;;;;;;4985690;28;20214;-67
2022/08/22 06:10:48;;;;;;;8.10;5.32;;;21.90;99.90;;;;;;4987252;28;20230;-67
2022/08/22 06:13:24;;;;;;;9.07;5.25;;;22.10;99.90;;;;;;4987027;28;20201;-67
2022/08/22 06:16:01;;;;;;;10.32;5.63;;;22.30;99.90;;;;;;4985708;28;20205;-67
2022/08/22 06:18:30;;;;;;;7.97;4.95;;;22.50;99.90;;;;;;4983478;28;20233;-68
2022/08/22 06:20:59;;;;;;;8.23;5.10;;;22.50;99.90;;;;;;4984032;28;20216;-68
2022/08/22 06:23:32;;;;;;;8.88;5.13;;;22.80;99.90;;;;;;4983875;28;20237;-69
2022/08/22 06:26:00;;;;;;;7.55;4.40;;;22.70;99.90;;;;;;4986277;28;20217;-69
2022/08/22 06:28:31;;;;;;;7.25;5.15;;;22.80;99.90;;;;;;4987693;28;20205;-69
2022/08/22 06:30:57;;;;;;;7.80;4.97;;;23.00;99.90;;;;;;4985969;28;20185;-69
2022/08/22 06:33:27;;;;;;;7.03;4.70;;;23.30;99.90;;;;;;4984294;28;20229;-68
2022/08/22 06:36:29;;;;;;;6.80;3.92;;;23.50;99.90;;;;;;4987322;28;20201;-67
2022/08/22 06:39:24;;;;;;;7.57;4.40;;;23.80;99.90;;;;;;4983252;28;20210;-69
2022/08/22 06:41:53;;;;;;;7.38;3.78;;;24.00;99.90;;;;;;4983116;28;20206;-69
2022/08/22 06:44:24;;;;;;;10.35;4.97;;;24.00;99.90;;;;;;4987590;28;20661;-71
2022/08/22 06:46:58;;;;;;;9.60;4.82;;;24.10;99.90;;;;;;4990306;28;20221;-71
2022/08/22 06:49:25;;;;;;;10.25;4.85;;;24.30;99.90;;;;;;4982313;28;20216;-72
2022/08/22 06:51:56;;;;;;;8.40;4.78;;;24.40;99.90;;;;;;4985629;28;20186;-70
2022/08/22 06:54:26;;;;;;;5.30;4.20;;;24.30;99.90;;;;;;4988438;28;20708;-70
2022/08/22 06:56:54;;;;;;;8.73;4.93;;;24.10;99.90;;;;;;4988461;28;20256;-71
2022/08/22 06:59:26;;;;;;;6.95;4.80;;;24.20;99.90;;;;;;4983281;28;20205;-69
2022/08/22 07:02:05;;;;;;;8.73;4.55;;;24.40;99.90;;;;;;4987200;28;20470;-70
2022/08/22 07:04:31;;;;;;;7.72;5.13;;;24.50;99.90;;;;;;4994141;28;20214;-71
2022/08/22 07:07:00;;;;;;;11.70;5.85;;;24.60;99.90;;;;;;4983566;28;20182;-70
2022/08/22 07:09:33;;;;;;;6.78;4.60;;;24.60;99.90;;;;;;4987241;28;20185;-71
2022/08/22 07:12:02;;;;;;;8.23;5.18;;;24.80;99.90;;;;;;4986660;28;20209;-69
2022/08/22 07:14:39;;;;;;;10.38;5.45;;;25.30;99.90;;;;;;4986197;28;20213;-69
2022/08/22 07:17:08;;;;;;;7.95;4.22;;;25.50;99.90;;;;;;4985875;28;20324;-71
2022/08/22 07:19:47;;;;;;;7.78;4.32;;;25.70;99.90;;;;;;4987279;28;20198;-70
2022/08/22 07:22:15;;;;;;;9.82;4.75;;;25.90;99.90;;;;;;4983844;28;20718;-69
2022/08/22 07:24:50;;;;;;;9.73;4.90;;;25.90;99.90;;;;;;4982699;28;20190;-70
2022/08/22 07:27:21;;;;;;;8.23;4.60;;;26.00;99.90;;;;;;4988038;28;20259;-69
2022/08/22 07:29:47;;;;;;;7.32;3.97;;;25.90;99.90;;;;;;4986249;28;20214;-70
2022/08/22 07:32:19;;;;;;;7.30;4.38;;;25.80;99.90;;;;;;4993241;28;20214;-71
2022/08/22 07:34:54;;;;;;;8.52;4.65;;;25.90;99.90;;;;;;5003599;28;20221;-71
2022/08/22 07:37:44;;;;;;;8.32;3.85;;;26.00;99.90;;;;;;4997748;28;20971;-70
2022/08/22 07:40:41;;;;;;;7.57;3.42;;;26.10;99.90;;;;;;4984664;28;20182;-70
2022/08/22 07:43:19;;;;;;;6.13;3.75;;;26.00;99.90;;;;;;4986601;28;20249;-71
2022/08/22 07:45:49;;;;;;;5.80;3.38;;;25.90;99.90;;;;;;4990277;28;20185;-70
2022/08/22 07:48:37;;;;;;;4.45;3.40;;;25.90;99.90;;;;;;4990365;28;20725;-70
2022/08/22 07:51:04;;;;;;;6.40;3.35;;;25.80;99.90;;;;;;4988625;28;20209;-69
2022/08/22 07:53:36;;;;;;;9.23;3.47;;;25.80;99.90;;;;;;4990397;28;20325;-69
2022/08/22 07:56:04;;;;;;;7.15;3.30;;;26.00;99.90;;;;;;4989829;28;20210;-69
2022/08/22 07:58:34;;;;;;;5.00;2.40;;;26.10;99.90;;;;;;4985797;28;20265;-70
2022/08/22 08:01:00;;;;;;;8.60;2.53;;;26.30;99.90;;;;;;4986032;28;20182;-69
2022/08/22 08:03:29;;;;;;;6.07;3.72;;;26.40;99.90;;;;;;5006313;28;20237;-69
2022/08/22 08:05:55;;;;;;;7.22;3.10;;;26.70;99.90;;;;;;4986934;28;20217;-71
2022/08/22 08:08:42;;;;;;;6.07;3.38;;;27.00;99.90;;;;;;4988349;28;20210;-71
2022/08/22 08:11:12;;;;;;;24.92;4.82;;;27.20;99.90;;;;;;4988052;28;20209;-70
2022/08/22 08:13:45;;;;;;;4.43;2.15;;;27.60;99.90;;;;;;4991146;28;20237;-70
2022/08/22 08:16:18;;;;;;;5.97;2.10;;;27.90;99.90;;;;;;4988236;28;20178;-69
2022/08/22 08:18:47;;;;;;;4.85;1.67;;;27.90;99.90;;;;;;4989157;28;20178;-69
2022/08/22 08:21:38;;;;;;;4.60;1.85;;;27.80;99.90;;;;;;4991188;28;20573;-69
2022/08/22 08:24:06;;;;;;;4.78;2.15;;;27.70;99.90;;;;;;4986304;28;20202;-70
2022/08/22 08:26:38;;;;;;;4.78;1.90;;;27.60;99.90;;;;;;4986354;28;20213;-69
2022/08/22 08:29:06;;;;;;;7.40;2.35;;;27.30;99.90;;;;;;4990372;28;20210;-70
2022/08/22 08:31:37;;;;;;;3.72;1.77;;;27.00;99.90;;;;;;4986440;28;20605;-68
2022/08/22 08:34:16;;;;;;;5.38;1.70;;;26.80;99.90;;;;;;4987823;28;20202;-71
2022/08/22 08:36:50;;;;;;;9.38;5.53;;;26.70;99.90;;;;;;4989427;28;20198;-68
2022/08/22 08:39:31;;;;;;;4.68;2.35;;;27.00;99.90;;;;;;4989047;28;20208;-68
2022/08/22 08:42:15;;;;;;;4.97;2.08;;;27.60;99.90;;;;;;4986037;28;20209;-69
2022/08/22 08:44:53;;;;;;;4.10;1.80;;;27.80;99.90;;;;;;4987115;28;20272;-69
2022/08/22 08:48:00;;;;;;;6.07;2.20;;;27.20;99.90;;;;;;4992957;28;20216;-69
2022/08/22 08:50:46;;;;;;;5.82;2.25;;;26.90;99.90;;;;;;4976201;28;20832;-70
2022/08/22 08:53:49;;;;;;;3.25;1.60;;;26.80;99.90;;;;;;4987030;28;20264;-68
2022/08/22 08:56:40;;;;;;;7.38;2.03;;;26.30;99.90;;;;;;4987729;28;20590;-69
2022/08/22 08:59:21;;;;;;;4.65;1.98;;;26.30;99.90;;;;;;4986579;28;20206;-70
2022/08/22 09:01:51;;;;;;;4.03;2.03;;;26.50;99.90;;;;;;4987948;28;20210;-69
2022/08/22 09:04:25;;;;;;;2.72;1.90;;;26.50;99.90;;;;;;4991606;28;20205;-70
2022/08/22 09:07:39;;;;;;;3.03;1.90;;;26.40;99.90;;;;;;4984615;28;20261;-69
2022/08/22 09:10:26;;;;;;;4.68;1.75;;;25.90;99.90;;;;;;4988040;28;20292;-70
2022/08/22 09:13:05;;;;;;;4.15;1.55;;;25.60;99.90;;;;;;4991749;28;20737;-69
2022/08/22 09:15:44;;;;;;;5.47;2.05;;;25.40;99.90;;;;;;4985176;28;20217;-69
2022/08/22 09:18:29;;;;;;;6.65;1.88;;;25.50;99.90;;;;;;4985266;28;20224;-70
2022/08/22 09:20:58;;;;;;;4.85;1.70;;;25.50;99.90;;;;;;4986695;28;20300;-68
2022/08/22 09:23:35;;;;;;;3.38;1.55;;;25.40;99.90;;;;;;4984888;28;20717;-69
2022/08/22 09:26:09;;;;;;;4.00;1.90;;;25.70;99.90;;;;;;4987578;28;20308;-68
2022/08/22 09:28:41;;;;;;;4.25;1.60;;;25.70;99.90;;;;;;4987328;28;20586;-68
2022/08/22 09:31:10;;;;;;;5.28;1.98;;;25.70;99.90;;;;;;4987363;28;20174;-70
2022/08/22 09:33:53;;;;;;;4.68;1.70;;;25.80;99.90;;;;;;4983699;28;20200;-69
2022/08/22 09:36:54;;;;;;;2.80;1.70;;;25.70;99.90;;;;;;4982218;28;20637;-68
2022/08/22 09:39:26;;;;;;;5.78;1.77;;;25.80;99.90;;;;;;4981822;28;20241;-70
2022/08/22 09:42:30;;;;;;;5.65;1.88;;;25.50;99.90;;;;;;5000590;28;20222;-68
2022/08/22 09:45:14;;;;;;;4.57;1.92;;;25.80;99.90;;;;;;5010611;23;20266;-72
2022/08/22 09:48:00;;;;;;;5.35;2.05;;;25.90;99.90;;;;;;5042568;28;20624;-71
2022/08/22 09:50:50;;;;;;;7.10;2.22;;;25.90;99.90;;;;;;5040155;28;20215;-71
2022/08/22 09:53:42;;;;;;;3.90;1.80;;;25.50;99.90;;;;;;5040477;28;20696;-70
2022/08/22 09:56:31;;;;;;;4.20;2.00;;;25.60;99.90;;;;;;5043129;28;20779;-72
2022/08/22 09:59:11;;;;;;;3.33;1.70;;;25.70;99.90;;;;;;5043757;28;20203;-72
2022/08/22 10:01:53;;;;;;;7.18;1.60;;;25.90;99.90;;;;;;5040365;28;20214;-72
2022/08/22 10:04:38;;;;;;;3.65;1.88;;;26.30;99.90;;;;;;5042567;28;20211;-72
2022/08/22 10:07:12;;;;;;;22.13;3.58;;;26.30;99.90;;;;;;5043408;28;20545;-71
2022/08/22 10:10:00;;;;;;;5.30;2.22;;;25.90;99.90;;;;;;5043756;28;20215;-71
2022/08/22 10:12:30;;;;;;;2.88;1.40;;;26.10;99.90;;;;;;5037817;28;20931;-72
2022/08/22 10:15:15;;;;;;;5.57;1.70;;;26.50;99.90;;;;;;5036098;28;20342;-72
2022/08/22 10:18:08;;;;;;;5.05;1.80;;;26.00;99.90;;;;;;5042579;28;20223;-74
2022/08/22 10:20:43;;;;;;;5.70;1.60;;;26.10;99.90;;;;;;5040205;28;20733;-72
2022/08/22 10:23:22;;;;;;;11.35;2.13;;;26.00;99.90;;;;;;5044284;28;20209;-74
2022/08/22 10:25:53;;;;;;;4.40;1.60;;;26.00;99.90;;;;;;5036771;28;20218;-73
2022/08/22 10:28:43;;;;;;;6.15;1.63;;;26.00;99.90;;;;;;5041445;28;20203;-73
2022/08/22 10:31:20;;;;;;;3.30;1.92;;;26.10;99.90;;;;;;5051582;28;20533;-72
2022/08/22 10:34:16;;;;;;;4.85;1.40;;;26.60;99.90;;;;;;5041670;28;20167;-74
2022/08/22 10:37:03;;;;;;;4.53;1.85;;;26.50;99.90;;;;;;5043390;28;20200;-72
2022/08/22 10:39:40;;;;;;;2.83;1.40;;;26.10;99.90;;;;;;5040508;28;20363;-75
2022/08/22 10:42:18;;;;;;;4.72;1.77;;;25.90;99.90;;;;;;5047448;28;20286;-73
2022/08/22 10:44:50;;;;;;;5.25;1.92;;;26.10;99.90;;;;;;5025917;28;20199;-73
2022/08/22 10:47:32;;;;;;;6.18;1.88;;;26.10;99.90;;;;;;5039540;28;20222;-73
2022/08/22 10:50:24;;;;;;;2.60;1.50;;;26.00;99.90;;;;;;5043872;28;20204;-73
2022/08/22 10:55:46;;;;;;;2.17;1.35;;;26.40;99.90;;;;;;5034255;28;20242;-76
2022/08/22 10:58:21;;;;;;;3.78;1.50;;;26.80;99.90;;;;;;5037725;28;20233;-72
2022/08/22 11:00:58;;;;;;;3.42;1.70;;;27.00;99.90;;;;;;5040415;28;20179;-75
2022/08/22 11:03:43;;;;;;;1.60;1.33;;;27.00;99.90;;;;;;5040838;28;20199;-74
2022/08/22 11:06:35;;;;;;;3.10;1.45;;;26.70;99.90;;;;;;5038449;28;20220;-73
2022/08/22 11:09:18;;;;;;;3.33;1.80;;;26.70;99.90;;;;;;5064609;28;20203;-72
2022/08/22 11:12:02;;;;;;;3.20;1.38;;;26.20;99.90;;;;;;5046798;28;20743;-72
2022/08/22 11:14:27;;;;;;;3.92;1.92;;;26.60;99.90;;;;;;5042515;28;20205;-71
2022/08/22 11:17:01;;;;;;;4.18;1.58;;;26.80;99.90;;;;;;5050488;28;20300;-70
2022/08/22 11:19:55;;;;;;;2.65;1.42;;;26.70;99.90;;;;;;5043918;28;20207;-73
2022/08/22 11:22:26;;;;;;;3.92;1.40;;;26.60;99.90;;;;;;5025481;28;20231;-76
2022/08/22 11:24:53;;;;;;;4.93;1.70;;;27.00;99.90;;;;;;5051711;28;20656;-73
2022/08/22 11:27:38;;;;;;;5.22;1.83;;;26.80;99.90;;;;;;5045327;28;20261;-73
2022/08/22 11:30:17;;;;;;;3.38;1.55;;;26.80;99.90;;;;;;5048158;28;20207;-74
2022/08/22 11:33:16;;;;;;;6.05;1.77;;;27.00;99.90;;;;;;5048979;28;20253;-73
2022/08/22 11:36:20;;;;;;;2.90;1.27;;;27.40;99.90;;;;;;5029993;28;20707;-73
2022/08/22 11:38:57;;;;;;;3.53;1.60;;;27.70;99.90;;;;;;5045503;28;20207;-72
2022/08/22 11:41:35;;;;;;;4.53;1.60;;;27.90;99.90;;;;;;5045488;28;20264;-75
2022/08/22 11:44:31;;;;;;;4.95;1.63;;;27.50;99.90;;;;;;5049079;28;20341;-73
2022/08/22 11:47:00;;;;;;;5.10;1.58;;;27.40;99.90;;;;;;5040628;28;20222;-72
2022/08/22 11:49:31;;;;;;;3.28;1.38;;;27.00;99.90;;;;;;5048305;28;20207;-71
2022/08/22 11:52:12;;;;;;;3.55;1.70;;;27.10;99.90;;;;;;5048088;28;20232;-71
2022/08/22 11:54:49;;;;;;;3.35;1.60;;;26.90;99.90;;;;;;5044271;28;20179;-74
2022/08/22 11:57:29;;;;;;;3.53;1.50;;;26.90;99.90;;;;;;5043732;28;20577;-76
2022/08/22 12:00:10;;;;;;;4.63;2.17;;;26.80;99.90;;;;;;5046145;28;20204;-76
2022/08/22 12:02:48;;;;;;;4.88;1.80;;;27.10;99.90;;;;;;5045885;28;20606;-74
2022/08/22 12:05:32;;;;;;;3.42;1.80;;;26.70;99.90;;;;;;5047604;28;20692;-75
2022/08/22 12:08:12;;;;;;;3.80;1.60;;;26.40;99.90;;;;;;5028875;28;20222;-75
2022/08/22 12:10:58;;;;;;;4.55;1.95;;;26.10;99.90;;;;;;5042051;28;20200;-74
2022/08/22 12:13:27;;;;;;;4.15;1.88;;;25.80;99.90;;;;;;5026205;28;20283;-74
2022/08/22 12:16:12;;;;;;;4.47;1.55;;;25.90;99.90;;;;;;5052748;28;20262;-74
2022/08/22 12:19:03;;;;;;;2.70;1.52;;;25.70;99.90;;;;;;5044907;28;20208;-74
2022/08/22 12:21:44;;;;;;;5.35;1.40;;;25.70;99.90;;;;;;5043968;28;20207;-73
2022/08/22 12:24:27;;;;;;;4.75;1.88;;;25.70;99.90;;;;;;5050859;28;20286;-74
2022/08/22 12:27:25;;;;;;;3.85;1.95;;;25.50;99.90;;;;;;5045456;28;20215;-72
2022/08/22 12:30:27;;;;;;;5.93;2.58;;;25.70;99.90;;;;;;5043568;28;20230;-73
2022/08/22 12:33:25;;;;;;;4.65;2.88;;;25.70;99.90;;;;;;5045875;28;20218;-74
2022/08/22 12:36:15;;;;;;;5.10;2.78;;;25.70;99.90;;;;;;5042912;28;20220;-74
2022/08/22 12:39:26;;;;;;;4.53;2.97;;;26.20;99.90;;;;;;5046873;28;20222;-75
2022/08/22 12:42:03;;;;;;;2.78;1.95;;;26.60;99.90;;;;;;5020505;28;20204;-75
2022/08/22 12:44:55;;;;;;;5.18;3.15;;;26.50;99.90;;;;;;5044847;28;20210;-76
2022/08/22 12:47:41;;;;;;;3.20;2.28;;;26.40;99.90;;;;;;5041277;28;20216;-74
2022/08/22 12:50:15;;;;;;;4.28;2.05;;;26.30;99.90;;;;;;5046066;28;20243;-77
2022/08/22 12:53:05;;;;;;;5.57;2.55;;;26.00;99.90;;;;;;5037000;28;20234;-73
2022/08/22 12:55:36;;;;;;;5.03;1.85;;;25.50;99.90;;;;;;5040431;28;20299;-76
2022/08/22 12:58:08;;;;;;;4.57;2.10;;;25.30;99.90;;;;;;5047025;28;20227;-71
2022/08/22 13:00:43;;;;;;;3.58;1.90;;;25.30;99.90;;;;;;5044009;28;20184;-75
2022/08/22 13:03:31;;;;;;;2.03;1.50;;;25.40;99.90;;;;;;5044831;28;20200;-73
2022/08/22 13:06:02;;;;;;;5.13;1.90;;;25.40;99.90;;;;;;5060907;28;20552;-70
2022/08/22 13:08:34;;;;;;;2.70;1.45;;;25.70;99.90;;;;;;5046934;28;20288;-70
2022/08/22 13:11:05;;;;;;;3.85;1.60;;;25.70;99.90;;;;;;5043647;28;20208;-71
2022/08/22 13:13:41;;;;;;;3.42;2.00;;;25.90;99.90;;;;;;5042220;28;20291;-72
2022/08/22 13:16:14;;;;;;;3.08;1.40;;;26.30;99.90;;;;;;5049774;28;20662;-73
2022/08/22 13:18:48;;;;;;;3.08;1.58;;;25.90;99.90;;;;;;5045470;28;20180;-71
2022/08/22 13:21:17;;;;;;;3.55;1.60;;;25.90;99.90;;;;;;5040621;28;20210;-72
2022/08/22 13:23:45;;;;;;;5.07;3.55;;;26.10;99.90;;;;;;5051270;28;20262;-72
2022/08/22 13:26:18;;;;;;;77.47;55.60;;;25.90;99.90;;;;;;5047069;28;20290;-72
2022/08/22 13:28:49;;;;;;;35.15;25.15;;;25.90;99.90;;;;;;5034314;28;20207;-74
2022/08/22 13:31:22;;;;;;;29.70;19.48;;;25.90;99.90;;;;;;5034093;28;20212;-72
2022/08/22 13:33:49;;;;;;;17.55;11.23;;;26.10;99.90;;;;;;5033115;28;20176;-73
2022/08/22 13:36:18;;;;;;;5.70;3.40;;;26.10;99.90;;;;;;5035502;28;20212;-73
2022/08/22 13:39:10;;;;;;;8.82;4.95;;;26.00;99.90;;;;;;5032156;28;20223;-75
2022/08/22 13:41:44;;;;;;;6.00;4.55;;;25.80;99.90;;;;;;5021189;28;20638;-77
2022/08/22 13:44:16;;;;;;;7.00;4.32;;;25.80;99.90;;;;;;5032165;28;20224;-74
2022/08/22 13:46:43;;;;;;;5.63;3.00;;;25.60;99.90;;;;;;5036046;28;20219;-71
2022/08/22 13:49:15;;;;;;;6.50;4.15;;;25.80;99.90;;;;;;5030744;28;20575;-72
2022/08/22 13:51:55;;;;;;;8.18;2.70;;;25.80;99.90;;;;;;5032281;28;20179;-72
2022/08/22 13:54:20;;;;;;;5.13;2.53;;;25.60;99.90;;;;;;5037127;28;20211;-76